Lowden, IA

2:35 PM CDT on July 25, 2016 (GMT -0500)
Center of Cedar County | | Change Station

Elev 823 ft 41.77 °N, 91.13 °W | Updated 8 seconds ago

Partly Cloudy
Partly Cloudy
83.8 °F
Feels Like 86 °F
N
2.0
Wind Variable Wind from North
Gusts 6.0 mph

Today
High -- | Low -- °F
--% Chance of Precip.
Yesterday
High -- | Low -- °F
Precip. -- in
Pressure 30.04 in
Visibility 10.0 miles
Clouds Few 3800 ft
Heat Index 86 °F
Dew Point 65 °F
Humidity 53%
Rainfall 0.00 in
Snow Depth Not available.
5:51 AM 8:28 PM
Waning Gibbous, 63% visible
METAR KDVN 251852Z AUTO VRB05KT 10SM FEW038 28/19 A3005 RMK AO2 SLP170 T02830194
Pressure 30.04 in
Visibility 10.0 miles
Clouds Few 3800 ft
Heat Index 86 °F
Dew Point 65 °F
Humidity 53%
Rainfall 0.00 in
Snow Depth Not available.
5:51 AM 8:28 PM
Waning Gibbous, 63% visible
METAR KDVN 251852Z AUTO VRB05KT 10SM FEW038 28/19 A3005 RMK AO2 SLP170 T02830194

10-Day Weather Forecast

Almanac

Astronomy

Jul. 25, 2016 Rise Set
Actual Time
Civil Twilight
Nautical Twilight
Astronomical Twilight
Moon
Length of Visible Light
Length of Day
Tomorrow will be .
, % of the Moon is Illuminated

Today's Extremes

State Highs State Lows

Community

WunderPhotos

Upload Photos

1,927,388 photos uploaded!

WunderBlog® & News

Nearby

Air Quality

  Air Quality AQ Index Pollutant
Not available.

Snow Depth

Station Depth Elevation

Earthquake Activity

City Distance Mag. Time & Date
Minimum magnitude displayed is 2.5.

Coastal Water Temperatures

Place Temperature

Stations

Nearby Weather Stations

Station Location Temp. Windchill Dew Point Humidity Wind Precip. Elev Updated Type
                   

Watches & Warnings

There are currently no watches in effect.